Time;durP1;ratioP1;P1;durP2;ratioP2;P2;SDS_P1;SDS_P2;PMS_P1;PMS_P2;Temp;Humidity;BMP_temperature;BMP_pressure;BME280_temperature;BME280_humidity;BME280_pressure;Samples;Min_cycle;Max_cycle;Signal;HPM_P1;HPM_P2
2022/06/08 00:00:26;;;;;;;5.57;4.50;;;;;;;26.79;39.93;94123.53;5082896;28;20464;-79
2022/06/08 00:03:09;;;;;;;4.27;4.00;;;;;;;26.78;39.82;94126.53;5099841;28;20439;-79
2022/06/08 00:05:35;;;;;;;6.03;4.10;;;;;;;26.97;39.53;94121.69;5083952;28;20186;-78
2022/06/08 00:08:01;;;;;;;4.30;3.93;;;;;;;26.83;39.99;94121.03;5082710;28;20435;-78
2022/06/08 00:10:26;;;;;;;4.37;4.03;;;;;;;26.67;39.52;94116.06;5084738;28;20189;-78
2022/06/08 00:12:52;;;;;;;4.60;4.30;;;;;;;26.73;39.46;94118.59;5082598;28;20420;-78
2022/06/08 00:15:18;;;;;;;4.97;4.47;;;;;;;26.53;39.35;94114.53;5086594;28;20176;-78
2022/06/08 00:17:43;;;;;;;5.10;4.80;;;;;;;26.47;40.01;94111.19;5085278;28;20173;-78
2022/06/08 00:20:10;;;;;;;6.27;4.50;;;;;;;26.59;39.92;94108.75;5094704;28;20203;-78
2022/06/08 00:22:36;;;;;;;9.93;4.63;;;;;;;26.52;40.28;94111.03;5085878;28;20174;-78
2022/06/08 00:25:03;;;;;;;7.60;4.87;;;;;;;26.44;40.57;94119.84;5083462;28;20413;-78
2022/06/08 00:27:28;;;;;;;5.20;4.70;;;;;;;26.30;41.09;94117.25;5085896;28;20447;-78
2022/06/08 00:29:53;;;;;;;6.30;5.80;;;;;;;25.77;41.69;94116.06;5083809;28;20452;-77
2022/06/08 00:32:19;;;;;;;5.60;5.20;;;;;;;26.00;41.34;94121.47;5086121;28;20213;-79
2022/06/08 00:34:44;;;;;;;5.30;4.90;;;;;;;25.60;42.12;94122.06;5085337;28;20237;-78
2022/06/08 00:37:10;;;;;;;5.20;4.83;;;;;;;25.78;41.90;94114.16;5078870;28;20200;-77
2022/06/08 00:39:35;;;;;;;5.77;5.33;;;;;;;25.92;41.40;94111.47;5084373;28;20262;-77
2022/06/08 00:42:05;;;;;;;5.20;4.90;;;;;;;25.93;41.60;94105.78;5084996;28;20544;-78
2022/06/08 00:44:45;;;;;;;5.37;4.90;;;;;;;25.83;41.59;94109.47;5085161;28;20219;-78
2022/06/08 00:47:18;;;;;;;5.87;5.40;;;;;;;26.02;41.69;94116.59;5083666;28;20857;-77
2022/06/08 00:49:50;;;;;;;6.10;5.30;;;;;;;26.20;41.27;94122.84;5085862;28;20442;-78
2022/06/08 00:52:16;;;;;;;5.23;4.80;;;;;;;26.40;41.09;94108.16;5077972;28;20959;-78
2022/06/08 00:54:54;;;;;;;6.10;4.80;;;;;;;26.51;40.74;94106.00;5073019;28;20428;-78
2022/06/08 00:57:30;;;;;;;5.80;5.30;;;;;;;26.37;40.52;94106.06;5081283;28;20436;-77
2022/06/08 01:00:05;;;;;;;4.90;4.50;;;;;;;25.73;41.57;94114.28;5084612;28;20481;-77
2022/06/08 01:02:31;;;;;;;5.30;4.90;;;;;;;25.62;42.09;94108.38;5073832;28;20474;-77
2022/06/08 01:05:30;;;;;;;5.50;5.07;;;;;;;25.72;42.02;94108.13;5085519;28;20412;-78
2022/06/08 01:08:01;;;;;;;6.70;5.10;;;;;;;25.54;42.09;94103.72;5085606;28;20190;-78
2022/06/08 01:10:34;;;;;;;4.73;4.43;;;;;;;25.91;41.85;94105.28;5084312;28;20436;-78
2022/06/08 01:13:04;;;;;;;5.50;5.10;;;;;;;25.91;41.50;94107.94;5082071;28;20443;-78
2022/06/08 01:15:32;;;;;;;5.83;4.73;;;;;;;26.15;41.25;94094.28;5078693;28;20412;-77
2022/06/08 01:17:58;;;;;;;6.73;5.07;;;;;;;25.39;42.32;94100.28;5070880;28;20404;-77
2022/06/08 01:20:23;;;;;;;5.23;4.83;;;;;;;25.91;41.44;94099.91;5080626;28;20794;-77
2022/06/08 01:22:49;;;;;;;4.50;4.30;;;;;;;26.28;40.41;94095.31;5089751;28;20421;-77
2022/06/08 01:25:15;;;;;;;5.30;5.00;;;;;;;25.83;41.99;94093.38;5075311;28;20174;-77
2022/06/08 01:27:56;;;;;;;4.70;4.40;;;;;;;25.87;41.81;94090.88;5084564;28;20170;-78
2022/06/08 01:30:26;;;;;;;5.13;4.67;;;;;;;25.74;41.55;94089.84;5082382;28;20451;-77
2022/06/08 01:33:22;;;;;;;5.00;4.50;;;;;;;25.52;42.20;94088.72;5080360;28;20508;-78
2022/06/08 01:36:22;;;;;;;5.10;4.80;;;;;;;25.35;42.87;94093.94;5084286;28;20511;-78
2022/06/08 01:39:01;;;;;;;6.50;4.53;;;;;;;25.02;43.38;94104.75;5076135;28;20423;-77
2022/06/08 01:41:42;;;;;;;5.03;4.63;;;;;;;24.78;44.01;94096.94;5080481;28;20801;-77
2022/06/08 01:44:16;;;;;;;5.80;5.40;;;;;;;24.56;44.35;94089.56;5083745;28;20474;-77
2022/06/08 01:46:51;;;;;;;6.13;5.63;;;;;;;24.34;44.80;94088.34;5082535;28;20519;-77
2022/06/08 01:49:35;;;;;;;5.33;5.03;;;;;;;24.28;44.93;94105.56;5076252;28;20459;-78
2022/06/08 01:52:22;;;;;;;5.27;4.80;;;;;;;24.19;44.86;94090.47;5082594;28;20431;-77
2022/06/08 01:54:57;;;;;;;5.87;5.20;;;;;;;23.81;45.51;94102.06;5079815;28;20796;-77
2022/06/08 01:57:32;;;;;;;5.50;4.83;;;;;;;24.38;44.02;94101.09;5077821;28;20432;-78
2022/06/08 02:00:04;;;;;;;5.10;4.70;;;;;;;24.41;43.87;94097.84;5082556;28;20567;-77
2022/06/08 02:02:33;;;;;;;5.10;4.60;;;;;;;24.73;43.96;94097.03;5076551;28;20459;-77
2022/06/08 02:05:19;;;;;;;6.00;4.60;;;;;;;24.58;43.45;94100.78;5084144;28;20415;-77
2022/06/08 02:07:52;;;;;;;4.80;4.30;;;;;;;24.81;43.62;94092.84;5074546;28;20424;-77
2022/06/08 02:10:40;;;;;;;5.30;4.90;;;;;;;25.02;43.36;94091.34;5084256;28;20396;-78
2022/06/08 02:13:24;;;;;;;6.03;4.77;;;;;;;24.98;42.50;94087.69;5083008;28;20554;-77
2022/06/08 02:15:54;;;;;;;5.63;5.23;;;;;;;24.97;42.57;94088.81;5083388;28;20446;-77
2022/06/08 02:18:36;;;;;;;4.63;4.37;;;;;;;24.65;43.39;94077.09;5083414;28;20426;-78
2022/06/08 02:21:23;;;;;;;4.60;4.30;;;;;;;24.42;44.33;94083.41;5084226;28;20531;-77
2022/06/08 02:23:56;;;;;;;6.93;5.07;;;;;;;24.41;43.59;94079.91;5090868;28;20507;-77
2022/06/08 02:26:24;;;;;;;5.00;4.60;;;;;;;24.13;44.71;94081.75;5079011;28;20470;-77
2022/06/08 02:28:56;;;;;;;5.70;4.60;;;;;;;24.38;43.56;94079.72;5084409;28;20416;-77
2022/06/08 02:31:33;;;;;;;5.63;5.13;;;;;;;24.72;43.43;94084.75;5083567;28;20423;-77
2022/06/08 02:34:28;;;;;;;6.80;5.37;;;;;;;24.74;43.85;94077.22;5083539;28;20539;-77
2022/06/08 02:36:58;;;;;;;5.87;5.43;;;;;;;24.72;43.70;94077.50;5082466;28;20458;-77
2022/06/08 02:39:53;;;;;;;6.20;5.80;;;;;;;24.50;44.34;94085.38;5079163;28;20453;-77
2022/06/08 02:42:26;;;;;;;6.50;5.87;;;;;;;25.01;43.48;94084.44;5074252;28;20442;-76
2022/06/08 02:44:57;;;;;;;6.33;5.83;;;;;;;24.99;42.94;94083.94;5083685;28;20455;-77
2022/06/08 02:47:30;;;;;;;6.77;6.20;;;;;;;24.27;44.63;94079.91;5075838;28;20431;-78
2022/06/08 02:49:59;;;;;;;7.87;7.23;;;;;;;24.73;44.23;94089.00;5088542;28;20420;-79
2022/06/08 02:52:27;;;;;;;8.03;7.43;;;;;;;25.19;43.13;94092.63;5084341;28;20448;-78
2022/06/08 02:54:53;;;;;;;6.60;6.03;;;;;;;25.54;42.97;94083.06;5088287;28;20483;-77
2022/06/08 02:57:41;;;;;;;6.33;5.83;;;;;;;24.68;44.26;94092.56;5079966;28;20527;-78
2022/06/08 03:00:31;;;;;;;7.50;6.60;;;;;;;25.06;43.54;94097.72;5084937;28;20517;-78
2022/06/08 03:03:02;;;;;;;6.83;6.00;;;;;;;25.34;42.69;94092.34;5086480;28;20470;-77
2022/06/08 03:05:33;;;;;;;6.50;6.00;;;;;;;25.51;42.58;94108.56;5083150;28;20439;-77
2022/06/08 03:08:07;;;;;;;9.33;6.57;;;;;;;25.55;41.85;94102.63;5086121;28;20420;-77
2022/06/08 03:10:36;;;;;;;7.07;6.50;;;;;;;25.44;42.37;94107.41;5080907;28;20427;-77
2022/06/08 03:13:09;;;;;;;7.53;6.90;;;;;;;25.49;42.58;94120.69;5084887;28;20412;-77
2022/06/08 03:15:34;;;;;;;7.47;6.87;;;;;;;25.10;43.39;94125.50;5087030;28;20732;-77
2022/06/08 03:18:01;;;;;;;6.17;5.67;;;;;;;25.38;43.15;94112.06;5086938;28;20491;-77
2022/06/08 03:20:27;;;;;;;6.90;6.30;;;;;;;24.75;43.78;94119.72;5084661;28;20280;-77
2022/06/08 03:22:54;;;;;;;8.87;6.33;;;;;;;25.14;43.05;94115.75;5082535;28;20404;-77
2022/06/08 03:25:20;;;;;;;6.80;6.30;;;;;;;25.31;43.06;94119.75;5086740;28;20424;-77
2022/06/08 03:27:46;;;;;;;6.60;6.03;;;;;;;24.93;43.51;94114.59;5084214;28;20435;-78
2022/06/08 03:30:13;;;;;;;6.97;6.37;;;;;;;25.47;42.63;94109.50;5086532;28;20420;-77
2022/06/08 03:32:39;;;;;;;6.60;6.00;;;;;;;25.62;42.08;94121.75;5087028;28;20412;-77
2022/06/08 03:35:05;;;;;;;6.27;5.87;;;;;;;25.66;42.06;94122.75;5085380;28;20539;-77
2022/06/08 03:37:30;;;;;;;7.53;6.93;;;;;;;25.05;42.87;94122.13;5086681;28;20424;-77
2022/06/08 03:39:56;;;;;;;6.93;5.70;;;;;;;25.54;42.65;94123.28;5079370;28;20196;-77
2022/06/08 03:42:21;;;;;;;6.10;5.60;;;;;;;25.88;42.07;94117.41;5087465;28;20283;-77
2022/06/08 03:44:47;;;;;;;5.93;5.33;;;;;;;24.95;42.84;94117.75;5082438;28;20205;-77
2022/06/08 03:47:19;;;;;;;6.90;6.30;;;;;;;25.46;41.91;94111.38;5085544;28;20170;-78
2022/06/08 03:49:45;;;;;;;8.43;6.13;;;;;;;25.43;41.61;94111.19;5086679;28;20193;-77
2022/06/08 03:52:17;;;;;;;6.87;6.27;;;;;;;24.39;44.22;94111.53;5080393;28;20810;-77
2022/06/08 03:54:48;;;;;;;12.37;6.67;;;;;;;24.74;43.84;94107.44;5085213;28;20432;-77
2022/06/08 03:57:14;;;;;;;6.90;6.40;;;;;;;24.81;43.57;94108.91;5084038;28;20482;-77
2022/06/08 03:59:42;;;;;;;6.33;5.80;;;;;;;25.65;42.42;94110.41;5081684;28;20573;-77
2022/06/08 04:02:11;;;;;;;8.87;6.63;;;;;;;25.89;42.06;94112.81;5087571;28;20435;-77
2022/06/08 04:04:37;;;;;;;6.93;6.53;;;;;;;26.14;41.03;94114.13;5082821;28;20432;-77
2022/06/08 04:07:03;;;;;;;6.40;5.87;;;;;;;26.46;40.20;94112.28;5085575;28;20440;-77
2022/06/08 04:09:29;;;;;;;7.03;6.40;;;;;;;26.59;40.44;94108.75;5088820;28;20934;-77
2022/06/08 04:11:54;;;;;;;7.17;6.47;;;;;;;26.47;40.40;94106.59;5086622;28;20428;-77
2022/06/08 04:14:21;;;;;;;6.63;6.03;;;;;;;26.43;40.66;94107.53;5099078;28;20615;-77
2022/06/08 04:16:47;;;;;;;11.77;7.20;;;;;;;26.76;39.84;94101.88;5084435;28;20574;-77
2022/06/08 04:19:13;;;;;;;8.17;6.60;;;;;;;26.55;40.02;94104.28;5085860;28;20421;-77
2022/06/08 04:21:40;;;;;;;7.43;6.73;;;;;;;26.53;40.59;94101.91;5079059;28;20500;-78
2022/06/08 04:24:07;;;;;;;8.43;6.50;;;;;;;26.84;39.46;94096.56;5082079;28;20439;-77
2022/06/08 04:26:33;;;;;;;7.30;6.60;;;;;;;27.04;39.80;94092.50;5085838;28;20419;-78
2022/06/08 04:28:58;;;;;;;7.20;6.53;;;;;;;27.26;39.11;94096.19;5077816;28;20988;-77
2022/06/08 04:31:24;;;;;;;6.70;6.20;;;;;;;26.53;39.83;94088.47;5086090;28;20196;-78
2022/06/08 04:33:50;;;;;;;7.03;6.43;;;;;;;26.97;39.82;94086.78;5084802;28;20226;-77
2022/06/08 04:36:15;;;;;;;7.57;6.77;;;;;;;27.26;39.43;94093.50;5085684;28;20177;-78
2022/06/08 04:38:42;;;;;;;8.57;7.97;;;;;;;27.02;39.53;94086.66;5080724;28;20422;-78
2022/06/08 04:41:08;;;;;;;9.57;8.67;;;;;;;27.27;38.66;94095.09;5085688;28;20194;-78
2022/06/08 04:43:34;;;;;;;9.33;8.60;;;;;;;26.96;39.21;94090.59;5076463;28;20487;-78
2022/06/08 04:46:00;;;;;;;15.90;8.37;;;;;;;27.16;39.51;94089.19;5082659;28;20930;-78
2022/06/08 04:48:26;;;;;;;7.57;6.90;;;;;;;27.67;38.46;94092.31;5082048;28;20442;-78
2022/06/08 04:50:52;;;;;;;9.70;8.70;;;;;;;27.29;38.71;94092.91;5075598;28;20169;-78
2022/06/08 04:53:18;;;;;;;9.33;8.30;;;;;;;27.50;38.93;94082.31;5084703;28;20450;-77
2022/06/08 04:55:43;;;;;;;9.23;8.00;;;;;;;27.52;39.35;94087.41;5082098;28;20434;-77
2022/06/08 04:58:09;;;;;;;10.57;9.10;;;;;;;27.24;39.21;94091.13;5081163;28;20174;-78
2022/06/08 05:00:34;;;;;;;9.60;8.80;;;;;;;26.92;39.46;94100.38;5083452;28;20202;-78
2022/06/08 05:03:00;;;;;;;9.23;8.50;;;;;;;26.63;40.92;94098.97;5085138;28;20671;-78
2022/06/08 05:05:37;;;;;;;9.67;8.87;;;;;;;26.40;41.05;94097.41;5084787;28;20174;-77
2022/06/08 05:08:05;;;;;;;9.77;8.90;;;;;;;26.68;40.28;94098.06;5083755;28;20177;-78
2022/06/08 05:10:32;;;;;;;9.70;8.67;;;;;;;26.03;41.68;94096.72;5082423;28;20431;-78
2022/06/08 05:12:59;;;;;;;11.20;9.93;;;;;;;26.44;40.87;94095.69;5083821;28;20412;-78
2022/06/08 05:15:28;;;;;;;14.90;10.40;;;;;;;25.94;42.17;94098.56;5084914;28;20436;-77
2022/06/08 05:17:54;;;;;;;11.13;10.17;;;;;;;26.53;40.49;94088.47;5082484;28;20489;-78
2022/06/08 05:20:20;;;;;;;9.40;8.47;;;;;;;27.16;39.94;94094.56;5085113;28;20522;-78
2022/06/08 05:22:51;;;;;;;9.93;9.10;;;;;;;27.81;38.48;94092.94;5084460;28;20443;-78
2022/06/08 05:25:30;;;;;;;10.30;9.27;;;;;;;27.60;38.87;94097.34;5082679;28;20192;-78
2022/06/08 05:27:56;;;;;;;9.60;8.90;;;;;;;27.74;37.97;94100.69;5097649;28;20470;-78
2022/06/08 05:30:22;;;;;;;9.87;9.00;;;;;;;27.76;38.23;94095.00;5081663;28;20429;-78
2022/06/08 05:32:48;;;;;;;8.93;8.03;;;;;;;27.54;37.74;94101.31;5083145;28;20177;-78
2022/06/08 05:35:13;;;;;;;8.67;7.80;;;;;;;27.48;38.23;94102.56;5076832;28;20218;-78
2022/06/08 05:37:39;;;;;;;12.53;7.40;;;;;;;27.72;38.27;94110.97;5081255;28;20834;-78
2022/06/08 05:40:06;;;;;;;8.73;7.90;;;;;;;28.20;36.94;94115.41;5081008;28;20308;-78
2022/06/08 05:42:32;;;;;;;9.00;8.20;;;;;;;28.59;36.21;94110.13;5084644;28;20189;-78
2022/06/08 05:44:57;;;;;;;8.47;7.77;;;;;;;28.32;36.55;94120.13;5080146;28;20503;-78
2022/06/08 05:47:24;;;;;;;9.10;8.30;;;;;;;28.07;37.31;94113.69;5083506;28;20180;-78
2022/06/08 05:49:49;;;;;;;9.13;8.20;;;;;;;28.95;36.31;94115.06;5083626;28;20870;-78
2022/06/08 05:52:17;;;;;;;8.10;7.50;;;;;;;29.36;35.10;94124.38;5075829;28;20449;-78
2022/06/08 05:54:43;;;;;;;8.47;7.87;;;;;;;29.84;34.91;94113.47;5078966;28;20261;-78
2022/06/08 05:57:08;;;;;;;8.30;7.60;;;;;;;30.21;34.05;94110.94;5078059;28;20513;-78
2022/06/08 05:59:36;;;;;;;9.40;8.50;;;;;;;30.52;32.87;94105.88;5083713;28;20708;-78
2022/06/08 06:02:02;;;;;;;8.97;8.37;;;;;;;29.41;34.97;94112.66;5082497;28;20203;-78
2022/06/08 06:04:28;;;;;;;8.40;7.60;;;;;;;30.53;33.43;94107.47;5083085;28;20443;-78
2022/06/08 06:06:54;;;;;;;8.47;7.30;;;;;;;31.29;32.47;94105.31;5083534;28;20427;-78
2022/06/08 06:09:20;;;;;;;8.60;7.80;;;;;;;30.06;33.49;94104.25;5083816;28;20217;-77
2022/06/08 06:11:46;;;;;;;14.43;9.30;;;;;;;29.75;34.00;94103.53;5084382;28;20185;-78
2022/06/08 06:14:13;;;;;;;8.80;7.63;;;;;;;28.58;35.69;94098.56;5081684;28;20424;-78
2022/06/08 06:16:38;;;;;;;8.67;7.40;;;;;;;29.66;34.31;94097.41;5083291;28;20437;-78
2022/06/08 06:19:04;;;;;;;9.90;8.90;;;;;;;28.01;36.99;94102.28;5078157;28;20432;-78
2022/06/08 06:21:30;;;;;;;8.40;7.70;;;;;;;29.26;35.39;94100.50;5081105;28;20308;-78
2022/06/08 06:23:58;;;;;;;9.40;8.70;;;;;;;30.27;33.31;94096.91;5084205;28;20197;-78
2022/06/08 06:26:24;;;;;;;11.80;8.77;;;;;;;30.37;33.01;94093.00;5087513;28;20423;-78
2022/06/08 06:28:49;;;;;;;8.27;7.43;;;;;;;31.38;31.89;94082.75;5081055;28;21092;-78
2022/06/08 06:31:35;;;;;;;9.33;8.27;;;;;;;31.00;31.73;94082.00;5085387;28;20428;-77
2022/06/08 06:34:00;;;;;;;9.53;7.83;;;;;;;31.11;32.05;94080.44;5080795;28;20224;-78
2022/06/08 06:36:25;;;;;;;9.23;8.27;;;;;;;30.22;32.01;94080.13;5087695;28;20499;-78
2022/06/08 06:38:52;;;;;;;8.40;7.60;;;;;;;29.89;33.27;94080.91;5084083;28;20185;-79
2022/06/08 06:41:18;;;;;;;6.93;6.33;;;;;;;29.88;33.19;94076.63;5084812;28;20228;-78
2022/06/08 06:43:44;;;;;;;8.03;7.20;;;;;;;30.13;33.39;94080.22;5086864;28;20938;-78
2022/06/08 06:46:10;;;;;;;8.77;6.90;;;;;;;30.64;32.54;94069.19;5087355;28;20436;-78
2022/06/08 06:48:36;;;;;;;6.20;5.80;;;;;;;31.09;31.21;94076.47;5085174;28;20648;-78
2022/06/08 06:51:04;;;;;;;5.60;5.20;;;;;;;30.81;31.74;94058.22;5086051;28;20423;-78
2022/06/08 06:53:29;;;;;;;7.00;6.10;;;;;;;31.00;31.63;94070.38;5087762;28;20173;-78
2022/06/08 06:55:55;;;;;;;9.90;6.03;;;;;;;30.88;31.23;94068.44;5084860;28;20431;-78
2022/06/08 06:58:21;;;;;;;5.83;5.43;;;;;;;31.33;31.44;94067.56;5087898;28;20174;-78
2022/06/08 07:00:47;;;;;;;6.00;5.00;;;;;;;31.10;30.61;94070.72;5082075;28;20221;-78
2022/06/08 07:03:12;;;;;;;5.40;5.10;;;;;;;31.02;31.13;94065.44;5087838;28;20223;-78
2022/06/08 07:05:37;;;;;;;4.63;4.23;;;;;;;30.88;29.41;94063.03;5085258;28;20617;-77
2022/06/08 07:08:04;;;;;;;4.17;3.80;;;;;;;30.51;29.68;94066.50;5086725;28;20185;-78
2022/06/08 07:10:30;;;;;;;4.73;4.37;;;;;;;30.58;29.54;94065.94;5085835;28;20178;-77
2022/06/08 07:12:55;;;;;;;5.03;4.17;;;;;;;30.38;29.88;94066.81;5080524;28;20530;-78
2022/06/08 07:15:23;;;;;;;3.90;3.60;;;;;;;30.35;30.07;94063.66;5080840;28;20193;-78
2022/06/08 07:17:49;;;;;;;3.97;3.30;;;;;;;30.07;30.57;94068.84;5088906;28;20216;-78
2022/06/08 07:20:15;;;;;;;4.20;3.80;;;;;;;31.35;29.72;94069.91;5084531;28;20472;-77
2022/06/08 07:22:41;;;;;;;4.30;4.00;;;;;;;31.89;28.67;94073.09;5085180;28;20523;-78
2022/06/08 07:25:08;;;;;;;3.83;3.27;;;;;;;32.24;27.41;94072.50;5099889;28;20424;-77
2022/06/08 07:27:35;;;;;;;4.33;4.10;;;;;;;32.29;28.07;94071.47;5085130;28;20179;-78
2022/06/08 07:30:01;;;;;;;5.23;4.93;;;;;;;32.48;27.14;94074.28;5086666;28;20419;-77
2022/06/08 07:32:27;;;;;;;5.30;4.90;;;;;;;31.57;29.14;94077.56;5085761;28;20514;-78
2022/06/08 07:34:52;;;;;;;5.23;4.80;;;;;;;32.98;28.07;94077.47;5085048;28;20468;-78
2022/06/08 07:37:17;;;;;;;5.03;4.53;;;;;;;31.87;29.34;94071.84;5077300;28;20264;-79
2022/06/08 07:39:43;;;;;;;5.77;4.60;;;;;;;33.09;28.03;94077.75;5108694;27;20198;-79
2022/06/08 07:42:08;;;;;;;6.20;5.70;;;;;;;32.70;28.14;94076.78;5085008;28;20192;-77
2022/06/08 07:44:34;;;;;;;5.23;4.77;;;;;;;32.90;28.23;94078.44;5076713;28;20266;-77
2022/06/08 07:46:59;;;;;;;6.80;6.20;;;;;;;32.22;28.57;94074.00;5086465;28;20174;-76
2022/06/08 07:49:37;;;;;;;11.60;5.43;;;;;;;31.41;30.19;94079.38;5081706;28;20206;-77
2022/06/08 07:52:06;;;;;;;6.63;5.47;;;;;;;31.46;30.00;94077.25;5082248;28;20559;-78
2022/06/08 07:54:32;;;;;;;5.73;5.17;;;;;;;32.28;28.70;94075.31;5083019;28;20452;-77
2022/06/08 07:57:01;;;;;;;5.77;5.33;;;;;;;31.02;29.88;94081.63;5084702;28;20428;-77
2022/06/08 07:59:29;;;;;;;7.97;7.03;;;;;;;30.68;31.00;94076.31;5084105;28;20186;-76
2022/06/08 08:01:55;;;;;;;6.10;5.60;;;;;;;31.52;29.54;94075.09;5083180;28;20432;-77
2022/06/08 08:04:21;;;;;;;7.53;5.53;;;;;;;32.79;28.30;94070.06;5084840;28;20429;-76
2022/06/08 08:06:47;;;;;;;5.97;5.30;;;;;;;32.78;28.22;94073.91;5081191;28;20179;-77
2022/06/08 08:09:17;;;;;;;8.07;6.33;;;;;;;33.26;27.11;94066.53;5081395;28;20426;-78
2022/06/08 08:11:47;;;;;;;8.03;7.30;;;;;;;32.46;28.29;94073.03;5080271;28;20435;-78
2022/06/08 08:14:13;;;;;;;13.07;7.13;;;;;;;33.57;27.13;94069.53;5078301;28;20461;-77
2022/06/08 08:16:40;;;;;;;7.80;6.63;;;;;;;33.06;27.80;94062.16;5082346;28;20445;-77
2022/06/08 08:19:05;;;;;;;6.43;5.93;;;;;;;33.65;26.82;94055.75;5083442;28;20423;-77
2022/06/08 08:21:32;;;;;;;8.40;7.70;;;;;;;33.10;27.92;94051.41;5086049;28;20473;-77
2022/06/08 08:24:00;;;;;;;8.77;7.30;;;;;;;33.24;27.70;94047.13;5081891;28;20185;-78
2022/06/08 08:26:27;;;;;;;7.33;6.53;;;;;;;33.37;27.53;94044.28;5085896;28;20436;-77
2022/06/08 08:28:54;;;;;;;7.50;6.80;;;;;;;31.20;30.08;94042.44;5079880;28;20482;-77
2022/06/08 08:31:20;;;;;;;8.17;7.47;;;;;;;31.46;29.97;94038.56;5081138;28;20564;-78
2022/06/08 08:33:46;;;;;;;8.07;7.27;;;;;;;31.42;30.55;94045.78;5083585;28;20462;-77
2022/06/08 08:36:12;;;;;;;13.30;7.57;;;;;;;30.79;30.69;94036.13;5084335;28;20473;-76
2022/06/08 08:38:38;;;;;;;7.83;6.53;;;;;;;31.57;29.65;94031.59;5084932;28;20187;-77
2022/06/08 08:42:20;;;;;;;7.63;6.07;;;;;;;32.64;28.69;94043.75;5082264;28;20198;-78
2022/06/08 08:43:50;;;;;;;6.33;5.83;;;;;;;33.20;27.38;94034.59;5083058;28;20445;-78
2022/06/08 08:46:39;;;;;;;6.03;5.53;;;;;;;31.45;28.66;94031.56;5098428;28;20442;-78
2022/06/08 08:49:19;;;;;;;13.10;5.70;;;;;;;31.50;28.92;94023.25;5080015;28;20181;-78
2022/06/08 08:51:55;;;;;;;9.23;5.10;;;;;;;32.75;27.62;94030.44;5081600;28;20446;-78
2022/06/08 08:54:31;;;;;;;7.63;5.50;;;;;;;32.08;27.81;94029.16;5081953;28;20417;-76
2022/06/08 08:57:11;;;;;;;12.27;5.50;;;;;;;33.57;26.14;94029.59;5078713;28;20467;-77
2022/06/08 08:59:41;;;;;;;6.70;4.80;;;;;;;34.10;25.30;94031.81;5081554;28;20496;-77
2022/06/08 09:03:14;;;;;;;6.07;5.57;;;;;;;33.79;25.44;94030.06;5080858;28;20462;-77
2022/06/08 09:05:03;;;;;;;4.87;4.43;;;;;;;34.57;24.68;94027.25;5078431;28;20425;-77
2022/06/08 09:07:29;;;;;;;4.70;4.50;;;;;;;34.50;25.20;94021.69;5082059;28;20457;-77
2022/06/08 09:09:55;;;;;;;7.27;4.60;;;;;;;35.11;24.06;94018.00;5082598;28;20472;-77
2022/06/08 09:12:21;;;;;;;6.80;4.63;;;;;;;35.37;23.05;94009.06;5081047;28;20485;-78
2022/06/08 09:14:58;;;;;;;4.80;4.40;;;;;;;35.09;23.78;94014.09;5081484;28;20211;-78
2022/06/08 09:17:34;;;;;;;6.03;4.40;;;;;;;34.61;24.13;94011.78;5078860;28;20178;-78
2022/06/08 09:20:03;;;;;;;5.77;4.60;;;;;;;34.89;23.58;94010.69;5081065;28;20432;-78
2022/06/08 09:22:31;;;;;;;5.60;4.70;;;;;;;34.72;24.30;94010.06;5083713;28;20440;-78
2022/06/08 09:25:21;;;;;;;5.40;4.90;;;;;;;35.50;23.24;94017.03;5083207;28;20445;-78
2022/06/08 09:27:52;;;;;;;4.47;4.17;;;;;;;35.21;23.66;94007.69;5081275;28;20439;-79
2022/06/08 09:30:24;;;;;;;4.63;4.20;;;;;;;33.62;24.47;94010.31;5082495;28;20439;-78
2022/06/08 09:33:00;;;;;;;4.60;4.17;;;;;;;34.54;23.92;94011.66;5079890;28;20432;-77
2022/06/08 09:35:32;;;;;;;6.63;4.00;;;;;;;34.30;24.21;94007.34;5080323;28;20576;-77
2022/06/08 09:38:11;;;;;;;5.57;5.27;;;;;;;34.84;23.57;93997.41;5098323;28;20427;-77
2022/06/08 09:40:56;;;;;;;3.73;3.43;;;;;;;35.82;22.90;94005.75;5082918;28;20463;-77
2022/06/08 09:43:55;;;;;;;6.70;3.50;;;;;;;35.12;22.86;93999.78;5079504;28;20555;-77
2022/06/08 09:51:25;;;;;;;3.30;3.10;;;;;;;35.21;22.44;93991.34;5083006;28;20775;-77
2022/06/08 09:52:29;;;;;;;4.53;4.13;;;;;;;34.40;24.04;93985.81;5077644;28;20488;-79
2022/06/08 09:55:11;;;;;;;3.57;3.27;;;;;;;34.58;23.60;93985.31;5081551;28;20419;-77
2022/06/08 09:57:52;;;;;;;3.17;2.97;;;;;;;34.59;23.21;93976.03;5083736;28;20802;-77
2022/06/08 10:00:25;;;;;;;3.60;3.30;;;;;;;34.03;24.14;93975.44;5084162;28;20960;-77
2022/06/08 10:03:05;;;;;;;6.57;3.33;;;;;;;33.68;24.42;93972.84;5085812;28;20432;-78
2022/06/08 10:06:01;;;;;;;5.20;4.80;;;;;;;34.36;24.30;93968.66;5085827;28;20465;-78
2022/06/08 10:08:36;;;;;;;6.30;3.83;;;;;;;35.79;23.00;93974.59;5087093;28;20519;-78
2022/06/08 10:11:37;;;;;;;5.83;3.10;;;;;;;35.89;21.44;93963.03;5084114;28;20420;-78
2022/06/08 10:14:22;;;;;;;5.23;3.43;;;;;;;34.72;23.28;93957.59;5083462;28;21089;-78
2022/06/08 10:17:48;;;;;;;5.87;3.20;;;;;;;35.75;21.69;93965.63;5098468;28;20439;-77
2022/06/08 10:20:25;;;;;;;3.10;2.53;;;;;;;35.84;21.75;93970.75;5051968;28;20484;-78
2022/06/08 10:23:01;;;;;;;5.07;3.00;;;;;;;35.97;21.63;93972.88;5066557;28;20417;-78
2022/06/08 10:25:34;;;;;;;3.13;2.93;;;;;;;36.45;21.32;93960.50;5079909;28;20569;-78
2022/06/08 10:28:37;;;;;;;2.47;2.27;;;;;;;35.09;21.41;93957.75;5081359;28;20408;-78
2022/06/08 10:31:21;;;;;;;7.03;2.87;;;;;;;35.52;21.96;93954.81;5080465;28;20458;-77
2022/06/08 10:34:03;;;;;;;3.60;2.60;;;;;;;35.73;22.04;93948.88;5083219;28;20464;-80
2022/06/08 10:36:31;;;;;;;4.00;3.43;;;;;;;33.69;23.19;93958.13;5078636;28;21035;-78
2022/06/08 10:38:59;;;;;;;2.90;2.70;;;;;;;33.61;23.64;93956.38;5082971;28;20439;-77
2022/06/08 10:44:26;;;;;;;3.30;3.10;;;;;;;33.70;23.52;93948.06;5082994;28;20411;-77
2022/06/08 10:46:52;;;;;;;4.70;4.00;;;;;;;33.35;24.18;93943.47;5081697;28;20436;-77
2022/06/08 10:49:30;;;;;;;3.70;3.40;;;;;;;34.38;22.96;93939.19;5081387;28;20419;-77
2022/06/08 10:52:37;;;;;;;3.73;3.53;;;;;;;34.94;22.50;93943.16;5086082;28;20387;-78
2022/06/08 10:55:17;;;;;;;3.90;3.60;;;;;;;35.15;22.18;93939.94;5062680;28;20435;-77
2022/06/08 10:57:51;;;;;;;2.47;2.27;;;;;;;35.69;22.14;93948.06;5068351;28;20446;-78
2022/06/08 11:00:19;;;;;;;2.73;2.50;;;;;;;36.90;20.67;93942.13;5090661;28;20455;-78
2022/06/08 11:02:53;;;;;;;2.50;2.40;;;;;;;36.38;20.48;93933.94;5074778;28;20420;-78
2022/06/08 11:05:28;;;;;;;3.90;2.30;;;;;;;37.04;20.79;93933.25;5080446;28;20535;-78
2022/06/08 11:08:04;;;;;;;3.77;2.57;;;;;;;36.04;20.95;93933.22;5083249;28;20422;-78
2022/06/08 11:10:52;;;;;;;3.33;2.67;;;;;;;36.15;20.48;93940.31;5075405;28;20504;-78
2022/06/08 11:13:26;;;;;;;2.50;2.40;;;;;;;36.63;20.61;93936.06;5082917;28;20484;-78
2022/06/08 11:15:52;;;;;;;3.30;3.00;;;;;;;37.41;19.83;93935.81;5086918;28;20435;-78
2022/06/08 11:18:21;;;;;;;2.80;2.60;;;;;;;37.18;20.14;93940.75;5086180;28;20427;-77
2022/06/08 11:21:05;;;;;;;2.83;2.63;;;;;;;37.08;20.30;93931.31;5085698;28;20249;-78
2022/06/08 11:23:34;;;;;;;4.63;3.03;;;;;;;36.37;21.00;93929.66;5082938;28;20882;-78
2022/06/08 11:26:09;;;;;;;2.90;2.80;;;;;;;35.56;21.88;93917.53;5090176;28;20457;-78
2022/06/08 11:28:40;;;;;;;5.30;3.00;;;;;;;35.41;21.89;93915.81;5075510;28;20408;-78
2022/06/08 11:31:12;;;;;;;3.30;3.10;;;;;;;36.01;21.15;93904.00;5086042;28;20434;-77
2022/06/08 11:34:16;;;;;;;2.73;2.60;;;;;;;37.04;19.88;93898.56;5086376;28;20468;-77
2022/06/08 11:36:53;;;;;;;3.50;3.30;;;;;;;37.74;19.26;93903.94;5082017;28;20411;-78
2022/06/08 11:39:44;;;;;;;3.40;3.20;;;;;;;35.00;21.60;93900.09;5086599;28;20426;-77
2022/06/08 11:42:31;;;;;;;3.70;3.40;;;;;;;35.99;21.14;93895.41;5089257;28;20438;-77
2022/06/08 11:45:16;;;;;;;5.37;3.03;;;;;;;36.91;20.21;93900.06;5077683;28;20454;-78
2022/06/08 11:48:09;;;;;;;3.60;3.40;;;;;;;35.27;21.52;93886.47;5085413;28;20424;-78
2022/06/08 11:50:48;;;;;;;3.17;2.93;;;;;;;35.24;21.51;93892.66;5076087;28;20436;-78
2022/06/08 11:53:35;;;;;;;6.50;2.67;;;;;;;35.55;21.27;93886.00;5085133;28;21010;-77
2022/06/08 11:56:37;;;;;;;3.77;3.47;;;;;;;36.52;20.49;93878.72;5069425;28;20450;-78
2022/06/08 11:59:06;;;;;;;3.20;2.90;;;;;;;37.48;19.78;93872.25;5084524;28;20435;-77
2022/06/08 12:01:42;;;;;;;5.50;2.73;;;;;;;36.98;20.47;93870.09;5080474;28;20574;-78